sensor_id;sensor_type;location;lat;lon;timestamp;temperature;humidity
9537;DHT22;4807;48.024;11.726;2023-02-19T00:00:15;10.70;94.50
9537;DHT22;4807;48.024;11.726;2023-02-19T00:03:25;10.60;94.70
9537;DHT22;4807;48.024;11.726;2023-02-19T00:06:34;10.60;94.50
9537;DHT22;4807;48.024;11.726;2023-02-19T00:09:42;10.60;94.50
9537;DHT22;4807;48.024;11.726;2023-02-19T00:12:50;10.60;94.50
9537;DHT22;4807;48.024;11.726;2023-02-19T00:16:05;10.60;94.70
9537;DHT22;4807;48.024;11.726;2023-02-19T00:19:16;10.60;94.70
9537;DHT22;4807;48.024;11.726;2023-02-19T00:22:26;10.60;94.70
9537;DHT22;4807;48.024;11.726;2023-02-19T00:25:35;10.60;94.80
9537;DHT22;4807;48.024;11.726;2023-02-19T00:28:44;10.60;94.80
9537;DHT22;4807;48.024;11.726;2023-02-19T00:31:53;10.50;94.80
9537;DHT22;4807;48.024;11.726;2023-02-19T00:35:04;10.50;94.80
9537;DHT22;4807;48.024;11.726;2023-02-19T00:38:13;10.50;94.80
9537;DHT22;4807;48.024;11.726;2023-02-19T00:41:22;10.50;94.80
9537;DHT22;4807;48.024;11.726;2023-02-19T00:44:31;10.50;94.90
9537;DHT22;4807;48.024;11.726;2023-02-19T00:47:40;10.50;94.80
9537;DHT22;4807;48.024;11.726;2023-02-19T00:50:50;10.50;94.80
9537;DHT22;4807;48.024;11.726;2023-02-19T00:53:58;10.50;94.90
9537;DHT22;4807;48.024;11.726;2023-02-19T00:57:07;10.50;94.80
9537;DHT22;4807;48.024;11.726;2023-02-19T01:00:15;10.40;94.90
9537;DHT22;4807;48.024;11.726;2023-02-19T01:03:23;10.40;94.90
9537;DHT22;4807;48.024;11.726;2023-02-19T01:06:33;10.40;95.00
9537;DHT22;4807;48.024;11.726;2023-02-19T01:09:41;10.40;95.10
9537;DHT22;4807;48.024;11.726;2023-02-19T01:12:50;10.30;95.10
9537;DHT22;4807;48.024;11.726;2023-02-19T01:16:02;10.30;95.10
9537;DHT22;4807;48.024;11.726;2023-02-19T01:19:11;10.30;95.10
9537;DHT22;4807;48.024;11.726;2023-02-19T01:22:21;10.30;95.10
9537;DHT22;4807;48.024;11.726;2023-02-19T01:25:30;10.30;95.00
9537;DHT22;4807;48.024;11.726;2023-02-19T01:28:38;10.30;94.90
9537;DHT22;4807;48.024;11.726;2023-02-19T01:31:48;10.30;95.20
9537;DHT22;4807;48.024;11.726;2023-02-19T01:34:57;10.30;94.50
9537;DHT22;4807;48.024;11.726;2023-02-19T01:38:06;10.30;94.80
9537;DHT22;4807;48.024;11.726;2023-02-19T01:41:17;10.30;94.70
9537;DHT22;4807;48.024;11.726;2023-02-19T01:48:37;10.30;94.70
9537;DHT22;4807;48.024;11.726;2023-02-19T01:51:50;10.30;94.70
9537;DHT22;4807;48.024;11.726;2023-02-19T01:55:06;10.30;94.90
9537;DHT22;4807;48.024;11.726;2023-02-19T01:58:19;10.30;95.00
9537;DHT22;4807;48.024;11.726;2023-02-19T02:01:27;10.40;94.90
9537;DHT22;4807;48.024;11.726;2023-02-19T02:04:36;10.40;95.00
9537;DHT22;4807;48.024;11.726;2023-02-19T02:07:48;10.40;95.00
9537;DHT22;4807;48.024;11.726;2023-02-19T02:11:16;10.30;95.10
9537;DHT22;4807;48.024;11.726;2023-02-19T02:14:28;10.40;95.20
9537;DHT22;4807;48.024;11.726;2023-02-19T02:17:49;10.30;95.00
9537;DHT22;4807;48.024;11.726;2023-02-19T02:21:20;10.30;95.20
9537;DHT22;4807;48.024;11.726;2023-02-19T02:29:20;10.30;95.00
9537;DHT22;4807;48.024;11.726;2023-02-19T02:32:44;10.20;95.30
9537;DHT22;4807;48.024;11.726;2023-02-19T02:36:04;10.20;95.40
9537;DHT22;4807;48.024;11.726;2023-02-19T02:39:19;10.20;95.20
9537;DHT22;4807;48.024;11.726;2023-02-19T02:42:32;10.20;95.20
9537;DHT22;4807;48.024;11.726;2023-02-19T02:45:45;10.20;95.40
9537;DHT22;4807;48.024;11.726;2023-02-19T02:49:16;10.10;95.60
9537;DHT22;4807;48.024;11.726;2023-02-19T02:52:31;10.10;95.70
9537;DHT22;4807;48.024;11.726;2023-02-19T02:56:01;10.10;95.60
9537;DHT22;4807;48.024;11.726;2023-02-19T02:59:15;10.10;95.60
9537;DHT22;4807;48.024;11.726;2023-02-19T03:02:27;10.10;95.70
9537;DHT22;4807;48.024;11.726;2023-02-19T03:05:40;10.00;96.30
9537;DHT22;4807;48.024;11.726;2023-02-19T03:09:07;10.00;97.00
9537;DHT22;4807;48.024;11.726;2023-02-19T03:12:21;10.00;97.20
9537;DHT22;4807;48.024;11.726;2023-02-19T03:15:54;9.90;98.20
9537;DHT22;4807;48.024;11.726;2023-02-19T03:19:25;9.80;98.80
9537;DHT22;4807;48.024;11.726;2023-02-19T03:22:37;9.70;99.10
9537;DHT22;4807;48.024;11.726;2023-02-19T03:25:49;9.60;99.40
9537;DHT22;4807;48.024;11.726;2023-02-19T03:29:26;9.50;99.80
9537;DHT22;4807;48.024;11.726;2023-02-19T03:32:44;9.40;99.90
9537;DHT22;4807;48.024;11.726;2023-02-19T03:36:00;9.30;99.90
9537;DHT22;4807;48.024;11.726;2023-02-19T03:39:17;9.20;99.90
9537;DHT22;4807;48.024;11.726;2023-02-19T03:42:35;9.00;99.90
9537;DHT22;4807;48.024;11.726;2023-02-19T03:45:56;8.90;99.90
9537;DHT22;4807;48.024;11.726;2023-02-19T03:49:15;8.80;99.90
9537;DHT22;4807;48.024;11.726;2023-02-19T03:52:37;8.60;99.90
9537;DHT22;4807;48.024;11.726;2023-02-19T03:55:56;8.50;99.90
9537;DHT22;4807;48.024;11.726;2023-02-19T03:59:17;8.50;99.90
9537;DHT22;4807;48.024;11.726;2023-02-19T04:02:38;8.40;99.90
9537;DHT22;4807;48.024;11.726;2023-02-19T04:05:55;8.60;99.90
9537;DHT22;4807;48.024;11.726;2023-02-19T04:09:08;8.30;99.90
9537;DHT22;4807;48.024;11.726;2023-02-19T04:12:28;8.30;99.90
9537;DHT22;4807;48.024;11.726;2023-02-19T04:15:39;8.20;99.90
9537;DHT22;4807;48.024;11.726;2023-02-19T04:18:52;8.10;99.90
9537;DHT22;4807;48.024;11.726;2023-02-19T04:22:07;8.10;99.90
9537;DHT22;4807;48.024;11.726;2023-02-19T04:25:17;8.10;99.90
9537;DHT22;4807;48.024;11.726;2023-02-19T04:28:28;8.10;99.90
9537;DHT22;4807;48.024;11.726;2023-02-19T04:31:37;8.10;99.90
9537;DHT22;4807;48.024;11.726;2023-02-19T04:34:46;8.00;99.90
9537;DHT22;4807;48.024;11.726;2023-02-19T04:37:54;8.00;99.90
9537;DHT22;4807;48.024;11.726;2023-02-19T04:41:02;8.00;99.90
9537;DHT22;4807;48.024;11.726;2023-02-19T04:44:12;7.90;99.90
9537;DHT22;4807;48.024;11.726;2023-02-19T04:47:20;7.80;99.90
9537;DHT22;4807;48.024;11.726;2023-02-19T04:50:28;7.90;99.90
9537;DHT22;4807;48.024;11.726;2023-02-19T04:53:38;7.90;99.90
9537;DHT22;4807;48.024;11.726;2023-02-19T04:56:55;7.80;99.90
9537;DHT22;4807;48.024;11.726;2023-02-19T05:00:17;7.90;99.90
9537;DHT22;4807;48.024;11.726;2023-02-19T05:03:38;7.90;99.90
9537;DHT22;4807;48.024;11.726;2023-02-19T05:06:55;9.50;99.90
9537;DHT22;4807;48.024;11.726;2023-02-19T05:10:42;7.90;99.90
9537;DHT22;4807;48.024;11.726;2023-02-19T05:14:09;7.90;99.90
9537;DHT22;4807;48.024;11.726;2023-02-19T05:17:34;8.00;99.90
9537;DHT22;4807;48.024;11.726;2023-02-19T05:20:48;7.90;99.90
9537;DHT22;4807;48.024;11.726;2023-02-19T05:24:05;8.00;99.90
9537;DHT22;4807;48.024;11.726;2023-02-19T05:27:24;7.90;99.90
9537;DHT22;4807;48.024;11.726;2023-02-19T05:30:39;8.00;99.90
9537;DHT22;4807;48.024;11.726;2023-02-19T05:34:00;8.00;99.90
9537;DHT22;4807;48.024;11.726;2023-02-19T05:37:16;7.90;99.90
9537;DHT22;4807;48.024;11.726;2023-02-19T05:40:38;9.30;99.90
9537;DHT22;4807;48.024;11.726;2023-02-19T05:44:03;8.00;99.90
9537;DHT22;4807;48.024;11.726;2023-02-19T05:47:19;8.00;99.90
9537;DHT22;4807;48.024;11.726;2023-02-19T05:50:48;8.40;99.90
9537;DHT22;4807;48.024;11.726;2023-02-19T05:54:13;8.00;99.90
9537;DHT22;4807;48.024;11.726;2023-02-19T05:57:41;8.10;99.90
9537;DHT22;4807;48.024;11.726;2023-02-19T06:00:57;8.00;99.90
9537;DHT22;4807;48.024;11.726;2023-02-19T06:04:13;8.10;99.90
9537;DHT22;4807;48.024;11.726;2023-02-19T06:07:36;8.10;99.90
9537;DHT22;4807;48.024;11.726;2023-02-19T06:10:50;8.10;99.90
9537;DHT22;4807;48.024;11.726;2023-02-19T06:14:03;8.10;99.90
9537;DHT22;4807;48.024;11.726;2023-02-19T06:17:23;8.60;99.90
9537;DHT22;4807;48.024;11.726;2023-02-19T06:20:43;8.10;99.90
9537;DHT22;4807;48.024;11.726;2023-02-19T06:24:13;8.10;99.90
9537;DHT22;4807;48.024;11.726;2023-02-19T06:27:31;8.10;99.90
9537;DHT22;4807;48.024;11.726;2023-02-19T06:30:47;8.20;99.90
9537;DHT22;4807;48.024;11.726;2023-02-19T06:34:05;8.10;99.90
9537;DHT22;4807;48.024;11.726;2023-02-19T06:37:22;8.10;99.90
9537;DHT22;4807;48.024;11.726;2023-02-19T06:40:52;8.20;99.90
9537;DHT22;4807;48.024;11.726;2023-02-19T06:44:10;8.10;99.90
9537;DHT22;4807;48.024;11.726;2023-02-19T06:48:21;8.20;99.90
9537;DHT22;4807;48.024;11.726;2023-02-19T06:52:23;8.20;99.90
9537;DHT22;4807;48.024;11.726;2023-02-19T06:56:29;8.20;99.90
9537;DHT22;4807;48.024;11.726;2023-02-19T07:00:11;8.20;99.90
9537;DHT22;4807;48.024;11.726;2023-02-19T07:04:05;8.30;99.90
9537;DHT22;4807;48.024;11.726;2023-02-19T07:07:53;9.10;99.90
9537;DHT22;4807;48.024;11.726;2023-02-19T07:14:33;8.30;99.90
9537;DHT22;4807;48.024;11.726;2023-02-19T07:17:42;9.90;99.90
9537;DHT22;4807;48.024;11.726;2023-02-19T07:20:51;8.40;99.90
9537;DHT22;4807;48.024;11.726;2023-02-19T07:23:59;8.50;99.90
9537;DHT22;4807;48.024;11.726;2023-02-19T07:27:09;8.50;99.90
9537;DHT22;4807;48.024;11.726;2023-02-19T07:30:19;8.60;99.90
9537;DHT22;4807;48.024;11.726;2023-02-19T07:33:28;8.60;99.90
9537;DHT22;4807;48.024;11.726;2023-02-19T07:36:37;8.60;99.90
9537;DHT22;4807;48.024;11.726;2023-02-19T07:39:45;8.60;99.90
9537;DHT22;4807;48.024;11.726;2023-02-19T07:42:54;8.60;99.90
9537;DHT22;4807;48.024;11.726;2023-02-19T07:46:04;10.40;99.90
9537;DHT22;4807;48.024;11.726;2023-02-19T07:49:15;8.70;99.90
9537;DHT22;4807;48.024;11.726;2023-02-19T07:52:23;8.80;99.90
9537;DHT22;4807;48.024;11.726;2023-02-19T07:55:32;8.80;99.90
9537;DHT22;4807;48.024;11.726;2023-02-19T07:58:41;8.90;99.90
9537;DHT22;4807;48.024;11.726;2023-02-19T08:01:53;9.00;99.90
9537;DHT22;4807;48.024;11.726;2023-02-19T08:05:20;9.00;99.90
9537;DHT22;4807;48.024;11.726;2023-02-19T08:08:29;9.00;99.90
9537;DHT22;4807;48.024;11.726;2023-02-19T08:11:37;8.90;99.90
9537;DHT22;4807;48.024;11.726;2023-02-19T08:15:04;8.90;99.90
9537;DHT22;4807;48.024;11.726;2023-02-19T08:18:15;8.90;99.90
9537;DHT22;4807;48.024;11.726;2023-02-19T08:21:25;8.80;99.90
9537;DHT22;4807;48.024;11.726;2023-02-19T08:24:35;8.80;99.90
9537;DHT22;4807;48.024;11.726;2023-02-19T08:27:48;8.90;99.90
9537;DHT22;4807;48.024;11.726;2023-02-19T08:31:01;8.90;99.90
9537;DHT22;4807;48.024;11.726;2023-02-19T08:34:13;8.90;99.90
9537;DHT22;4807;48.024;11.726;2023-02-19T08:37:22;9.00;99.90
9537;DHT22;4807;48.024;11.726;2023-02-19T08:40:31;9.00;99.90
9537;DHT22;4807;48.024;11.726;2023-02-19T08:43:40;9.10;99.90
9537;DHT22;4807;48.024;11.726;2023-02-19T08:46:49;9.10;99.90
9537;DHT22;4807;48.024;11.726;2023-02-19T08:50:00;9.00;99.90
9537;DHT22;4807;48.024;11.726;2023-02-19T08:53:11;9.00;99.90
9537;DHT22;4807;48.024;11.726;2023-02-19T08:56:19;9.10;99.90
9537;DHT22;4807;48.024;11.726;2023-02-19T08:59:28;9.10;99.90
9537;DHT22;4807;48.024;11.726;2023-02-19T09:02:36;9.00;99.90
9537;DHT22;4807;48.024;11.726;2023-02-19T09:05:46;8.90;99.90
9537;DHT22;4807;48.024;11.726;2023-02-19T09:08:54;8.80;99.90
9537;DHT22;4807;48.024;11.726;2023-02-19T09:12:03;8.80;99.90
9537;DHT22;4807;48.024;11.726;2023-02-19T09:15:12;8.80;99.90
9537;DHT22;4807;48.024;11.726;2023-02-19T09:18:20;8.90;99.90
9537;DHT22;4807;48.024;11.726;2023-02-19T09:21:30;9.40;99.90
9537;DHT22;4807;48.024;11.726;2023-02-19T09:24:38;9.10;99.90
9537;DHT22;4807;48.024;11.726;2023-02-19T09:27:46;9.00;99.90
9537;DHT22;4807;48.024;11.726;2023-02-19T09:30:55;9.00;99.90
9537;DHT22;4807;48.024;11.726;2023-02-19T09:34:04;8.80;99.90
9537;DHT22;4807;48.024;11.726;2023-02-19T09:37:14;8.60;99.90
9537;DHT22;4807;48.024;11.726;2023-02-19T09:40:22;8.50;99.90
9537;DHT22;4807;48.024;11.726;2023-02-19T09:43:31;8.50;99.90
9537;DHT22;4807;48.024;11.726;2023-02-19T09:46:42;8.50;99.90
9537;DHT22;4807;48.024;11.726;2023-02-19T09:49:56;8.60;99.90
9537;DHT22;4807;48.024;11.726;2023-02-19T09:53:15;8.60;99.90
9537;DHT22;4807;48.024;11.726;2023-02-19T09:56:28;8.70;99.90
9537;DHT22;4807;48.024;11.726;2023-02-19T09:59:40;9.00;99.90
9537;DHT22;4807;48.024;11.726;2023-02-19T10:02:53;9.20;99.90
9537;DHT22;4807;48.024;11.726;2023-02-19T10:06:11;9.30;99.90
9537;DHT22;4807;48.024;11.726;2023-02-19T10:09:29;9.50;99.90
9537;DHT22;4807;48.024;11.726;2023-02-19T10:12:40;9.50;99.90
9537;DHT22;4807;48.024;11.726;2023-02-19T10:15:56;9.40;99.90
9537;DHT22;4807;48.024;11.726;2023-02-19T10:19:08;9.30;99.90
9537;DHT22;4807;48.024;11.726;2023-02-19T10:22:18;9.20;99.90
9537;DHT22;4807;48.024;11.726;2023-02-19T10:25:29;9.20;99.90
9537;DHT22;4807;48.024;11.726;2023-02-19T10:28:38;9.10;99.90
9537;DHT22;4807;48.024;11.726;2023-02-19T10:31:47;8.90;99.90
9537;DHT22;4807;48.024;11.726;2023-02-19T10:35:10;8.90;99.90
9537;DHT22;4807;48.024;11.726;2023-02-19T10:38:21;8.90;99.90
9537;DHT22;4807;48.024;11.726;2023-02-19T10:41:39;9.10;99.90
9537;DHT22;4807;48.024;11.726;2023-02-19T10:44:53;9.00;99.90
9537;DHT22;4807;48.024;11.726;2023-02-19T10:48:05;9.20;99.90
9537;DHT22;4807;48.024;11.726;2023-02-19T10:51:32;9.20;99.90
9537;DHT22;4807;48.024;11.726;2023-02-19T10:54:43;9.40;99.90
9537;DHT22;4807;48.024;11.726;2023-02-19T10:57:53;9.70;99.90
9537;DHT22;4807;48.024;11.726;2023-02-19T11:01:11;9.90;99.90
9537;DHT22;4807;48.024;11.726;2023-02-19T11:04:23;9.90;99.90
9537;DHT22;4807;48.024;11.726;2023-02-19T11:07:32;10.80;99.90
9537;DHT22;4807;48.024;11.726;2023-02-19T11:10:47;10.10;99.90
9537;DHT22;4807;48.024;11.726;2023-02-19T11:13:59;10.20;99.90
9537;DHT22;4807;48.024;11.726;2023-02-19T11:17:22;10.30;99.90
9537;DHT22;4807;48.024;11.726;2023-02-19T11:20:32;10.40;99.90
9537;DHT22;4807;48.024;11.726;2023-02-19T11:23:44;10.40;99.90
9537;DHT22;4807;48.024;11.726;2023-02-19T11:26:55;10.20;99.90
9537;DHT22;4807;48.024;11.726;2023-02-19T11:30:33;10.00;99.90
9537;DHT22;4807;48.024;11.726;2023-02-19T11:33:52;9.90;99.90
9537;DHT22;4807;48.024;11.726;2023-02-19T11:37:12;9.80;99.90
9537;DHT22;4807;48.024;11.726;2023-02-19T11:40:28;9.80;99.90
9537;DHT22;4807;48.024;11.726;2023-02-19T11:43:56;9.70;99.90
9537;DHT22;4807;48.024;11.726;2023-02-19T11:47:38;9.70;99.90
9537;DHT22;4807;48.024;11.726;2023-02-19T11:51:34;9.50;99.90
9537;DHT22;4807;48.024;11.726;2023-02-19T11:55:07;9.60;99.90
9537;DHT22;4807;48.024;11.726;2023-02-19T11:58:40;10.00;99.90
9537;DHT22;4807;48.024;11.726;2023-02-19T12:02:33;10.30;99.90
9537;DHT22;4807;48.024;11.726;2023-02-19T12:06:22;10.50;99.90
9537;DHT22;4807;48.024;11.726;2023-02-19T12:09:48;9.60;99.90
9537;DHT22;4807;48.024;11.726;2023-02-19T12:13:12;10.50;99.90
9537;DHT22;4807;48.024;11.726;2023-02-19T12:16:31;10.50;99.90
9537;DHT22;4807;48.024;11.726;2023-02-19T12:19:57;10.50;99.90
9537;DHT22;4807;48.024;11.726;2023-02-19T12:23:37;10.60;99.90
9537;DHT22;4807;48.024;11.726;2023-02-19T12:27:13;10.70;99.90
9537;DHT22;4807;48.024;11.726;2023-02-19T12:30:50;10.50;99.90
9537;DHT22;4807;48.024;11.726;2023-02-19T12:38:38;10.20;99.50
9537;DHT22;4807;48.024;11.726;2023-02-19T12:41:57;10.00;99.90
9537;DHT22;4807;48.024;11.726;2023-02-19T12:45:18;10.00;99.90
9537;DHT22;4807;48.024;11.726;2023-02-19T12:48:37;9.90;99.90
9537;DHT22;4807;48.024;11.726;2023-02-19T12:51:59;9.70;98.80
9537;DHT22;4807;48.024;11.726;2023-02-19T12:55:21;9.50;99.30
9537;DHT22;4807;48.024;11.726;2023-02-19T12:58:38;9.30;99.90
9537;DHT22;4807;48.024;11.726;2023-02-19T13:01:53;9.20;99.90
9537;DHT22;4807;48.024;11.726;2023-02-19T13:05:17;9.30;99.90
9537;DHT22;4807;48.024;11.726;2023-02-19T13:08:57;9.40;99.00
9537;DHT22;4807;48.024;11.726;2023-02-19T13:12:19;9.30;98.60
9537;DHT22;4807;48.024;11.726;2023-02-19T13:15:34;9.30;99.00
9537;DHT22;4807;48.024;11.726;2023-02-19T13:18:51;9.00;99.70
9537;DHT22;4807;48.024;11.726;2023-02-19T13:26:06;9.00;99.90
9537;DHT22;4807;48.024;11.726;2023-02-19T13:29:40;9.10;99.60
9537;DHT22;4807;48.024;11.726;2023-02-19T13:33:12;9.20;98.80
9537;DHT22;4807;48.024;11.726;2023-02-19T13:36:34;9.30;99.20
9537;DHT22;4807;48.024;11.726;2023-02-19T13:39:48;9.50;97.80
9537;DHT22;4807;48.024;11.726;2023-02-19T13:43:01;9.70;97.50
9537;DHT22;4807;48.024;11.726;2023-02-19T13:46:14;9.80;97.00
9537;DHT22;4807;48.024;11.726;2023-02-19T13:49:39;9.80;96.20
9537;DHT22;4807;48.024;11.726;2023-02-19T13:52:52;9.50;96.40
9537;DHT22;4807;48.024;11.726;2023-02-19T13:56:02;9.40;96.60
9537;DHT22;4807;48.024;11.726;2023-02-19T13:59:35;9.20;96.70
9537;DHT22;4807;48.024;11.726;2023-02-19T14:02:45;9.20;96.70
9537;DHT22;4807;48.024;11.726;2023-02-19T14:06:10;9.10;97.10
9537;DHT22;4807;48.024;11.726;2023-02-19T14:09:52;10.30;97.70
9537;DHT22;4807;48.024;11.726;2023-02-19T14:13:10;9.30;96.90
9537;DHT22;4807;48.024;11.726;2023-02-19T14:19:59;8.80;99.60
9537;DHT22;4807;48.024;11.726;2023-02-19T14:23:15;8.40;99.90
9537;DHT22;4807;48.024;11.726;2023-02-19T14:26:33;8.30;99.90
9537;DHT22;4807;48.024;11.726;2023-02-19T14:29:42;8.40;99.90
9537;DHT22;4807;48.024;11.726;2023-02-19T14:32:53;8.40;99.30
9537;DHT22;4807;48.024;11.726;2023-02-19T14:36:27;8.40;99.60
9537;DHT22;4807;48.024;11.726;2023-02-19T14:39:43;8.40;99.80
9537;DHT22;4807;48.024;11.726;2023-02-19T14:42:59;8.40;99.90
9537;DHT22;4807;48.024;11.726;2023-02-19T14:46:16;8.60;99.80
9537;DHT22;4807;48.024;11.726;2023-02-19T14:49:36;8.40;99.90
9537;DHT22;4807;48.024;11.726;2023-02-19T14:52:51;8.40;99.50
9537;DHT22;4807;48.024;11.726;2023-02-19T14:56:04;8.50;99.90
9537;DHT22;4807;48.024;11.726;2023-02-19T14:59:38;8.50;99.10
9537;DHT22;4807;48.024;11.726;2023-02-19T15:03:38;8.40;98.50
9537;DHT22;4807;48.024;11.726;2023-02-19T15:06:49;8.40;98.50
9537;DHT22;4807;48.024;11.726;2023-02-19T15:10:01;8.40;99.00
9537;DHT22;4807;48.024;11.726;2023-02-19T15:13:18;8.40;98.70
9537;DHT22;4807;48.024;11.726;2023-02-19T15:16:34;8.50;98.00
9537;DHT22;4807;48.024;11.726;2023-02-19T15:19:43;8.50;98.30
9537;DHT22;4807;48.024;11.726;2023-02-19T15:22:54;8.50;98.10
9537;DHT22;4807;48.024;11.726;2023-02-19T15:26:19;8.50;98.00
9537;DHT22;4807;48.024;11.726;2023-02-19T15:29:31;8.50;97.70
9537;DHT22;4807;48.024;11.726;2023-02-19T15:32:50;8.50;97.80
9537;DHT22;4807;48.024;11.726;2023-02-19T15:36:03;8.40;97.20
9537;DHT22;4807;48.024;11.726;2023-02-19T15:39:20;8.40;97.50
9537;DHT22;4807;48.024;11.726;2023-02-19T15:42:36;8.40;97.50
9537;DHT22;4807;48.024;11.726;2023-02-19T15:46:03;8.40;97.80
9537;DHT22;4807;48.024;11.726;2023-02-19T15:49:24;8.40;97.80
9537;DHT22;4807;48.024;11.726;2023-02-19T15:52:44;9.50;97.70
9537;DHT22;4807;48.024;11.726;2023-02-19T15:56:07;8.40;97.00
9537;DHT22;4807;48.024;11.726;2023-02-19T15:59:29;8.40;97.20
9537;DHT22;4807;48.024;11.726;2023-02-19T16:02:44;8.40;97.30
9537;DHT22;4807;48.024;11.726;2023-02-19T16:06:00;8.50;97.40
9537;DHT22;4807;48.024;11.726;2023-02-19T16:09:19;8.40;97.60
9537;DHT22;4807;48.024;11.726;2023-02-19T16:12:35;8.40;96.90
9537;DHT22;4807;48.024;11.726;2023-02-19T16:15:56;8.40;97.00
9537;DHT22;4807;48.024;11.726;2023-02-19T16:19:12;8.30;96.80
9537;DHT22;4807;48.024;11.726;2023-02-19T16:22:28;8.30;96.70
9537;DHT22;4807;48.024;11.726;2023-02-19T16:25:40;8.20;96.90
9537;DHT22;4807;48.024;11.726;2023-02-19T16:28:53;8.00;96.90
9537;DHT22;4807;48.024;11.726;2023-02-19T16:32:04;7.80;97.40
9537;DHT22;4807;48.024;11.726;2023-02-19T16:35:35;7.70;97.70
9537;DHT22;4807;48.024;11.726;2023-02-19T16:39:15;7.60;97.80
9537;DHT22;4807;48.024;11.726;2023-02-19T16:42:27;7.50;98.20
9537;DHT22;4807;48.024;11.726;2023-02-19T16:45:40;7.50;98.50
9537;DHT22;4807;48.024;11.726;2023-02-19T16:48:49;7.50;98.50
9537;DHT22;4807;48.024;11.726;2023-02-19T16:51:58;7.40;98.70
9537;DHT22;4807;48.024;11.726;2023-02-19T16:55:11;7.40;98.70
9537;DHT22;4807;48.024;11.726;2023-02-19T16:58:20;7.40;98.90
9537;DHT22;4807;48.024;11.726;2023-02-19T17:01:30;7.50;98.80
9537;DHT22;4807;48.024;11.726;2023-02-19T17:04:38;7.40;98.90
9537;DHT22;4807;48.024;11.726;2023-02-19T17:07:47;8.00;99.20
9537;DHT22;4807;48.024;11.726;2023-02-19T17:10:57;7.60;99.00
9537;DHT22;4807;48.024;11.726;2023-02-19T17:14:08;7.60;98.80
9537;DHT22;4807;48.024;11.726;2023-02-19T17:17:18;8.70;99.00
9537;DHT22;4807;48.024;11.726;2023-02-19T17:20:28;8.50;98.80
9537;DHT22;4807;48.024;11.726;2023-02-19T17:23:38;7.70;98.30
9537;DHT22;4807;48.024;11.726;2023-02-19T17:26:47;7.80;98.30
9537;DHT22;4807;48.024;11.726;2023-02-19T17:29:57;7.80;98.50
9537;DHT22;4807;48.024;11.726;2023-02-19T17:33:08;7.90;98.90
9537;DHT22;4807;48.024;11.726;2023-02-19T17:36:19;7.70;98.70
9537;DHT22;4807;48.024;11.726;2023-02-19T17:39:28;7.70;98.90
9537;DHT22;4807;48.024;11.726;2023-02-19T17:42:37;7.90;98.20
9537;DHT22;4807;48.024;11.726;2023-02-19T17:45:45;7.80;98.10
9537;DHT22;4807;48.024;11.726;2023-02-19T17:48:55;7.80;98.10
9537;DHT22;4807;48.024;11.726;2023-02-19T17:52:04;7.80;98.00
9537;DHT22;4807;48.024;11.726;2023-02-19T17:55:13;7.80;98.10
9537;DHT22;4807;48.024;11.726;2023-02-19T17:58:24;7.80;98.40
9537;DHT22;4807;48.024;11.726;2023-02-19T18:01:32;7.80;98.30
9537;DHT22;4807;48.024;11.726;2023-02-19T18:04:42;7.80;98.30
9537;DHT22;4807;48.024;11.726;2023-02-19T18:07:50;7.80;98.60
9537;DHT22;4807;48.024;11.726;2023-02-19T18:10:58;7.70;98.60
9537;DHT22;4807;48.024;11.726;2023-02-19T18:14:07;7.90;98.70
9537;DHT22;4807;48.024;11.726;2023-02-19T18:17:15;7.70;98.80
9537;DHT22;4807;48.024;11.726;2023-02-19T18:20:26;7.70;99.00
9537;DHT22;4807;48.024;11.726;2023-02-19T18:23:36;7.70;99.00
9537;DHT22;4807;48.024;11.726;2023-02-19T18:26:45;7.70;99.20
9537;DHT22;4807;48.024;11.726;2023-02-19T18:29:54;7.70;99.30
9537;DHT22;4807;48.024;11.726;2023-02-19T18:36:43;7.60;99.50
9537;DHT22;4807;48.024;11.726;2023-02-19T18:39:52;7.70;99.30
9537;DHT22;4807;48.024;11.726;2023-02-19T18:43:00;7.70;99.50
9537;DHT22;4807;48.024;11.726;2023-02-19T18:46:09;7.60;99.40
9537;DHT22;4807;48.024;11.726;2023-02-19T18:49:18;7.60;99.40
9537;DHT22;4807;48.024;11.726;2023-02-19T18:52:28;7.60;99.60
9537;DHT22;4807;48.024;11.726;2023-02-19T18:55:36;7.60;99.40
9537;DHT22;4807;48.024;11.726;2023-02-19T18:58:45;7.60;99.60
9537;DHT22;4807;48.024;11.726;2023-02-19T19:01:56;7.60;99.50
9537;DHT22;4807;48.024;11.726;2023-02-19T19:05:04;7.60;99.40
9537;DHT22;4807;48.024;11.726;2023-02-19T19:08:14;7.60;99.30
9537;DHT22;4807;48.024;11.726;2023-02-19T19:11:23;7.60;99.40
9537;DHT22;4807;48.024;11.726;2023-02-19T19:14:31;7.50;99.60
9537;DHT22;4807;48.024;11.726;2023-02-19T19:17:39;7.40;99.70
9537;DHT22;4807;48.024;11.726;2023-02-19T19:20:48;7.40;99.70
9537;DHT22;4807;48.024;11.726;2023-02-19T19:23:57;7.50;99.50
9537;DHT22;4807;48.024;11.726;2023-02-19T19:27:06;7.50;99.50
9537;DHT22;4807;48.024;11.726;2023-02-19T19:30:14;7.50;99.30
9537;DHT22;4807;48.024;11.726;2023-02-19T19:33:23;7.50;99.40
9537;DHT22;4807;48.024;11.726;2023-02-19T19:36:34;7.50;99.50
9537;DHT22;4807;48.024;11.726;2023-02-19T19:39:43;7.40;99.70
9537;DHT22;4807;48.024;11.726;2023-02-19T19:42:52;7.40;99.70
9537;DHT22;4807;48.024;11.726;2023-02-19T19:46:02;7.30;99.90
9537;DHT22;4807;48.024;11.726;2023-02-19T19:49:16;7.40;99.70
9537;DHT22;4807;48.024;11.726;2023-02-19T19:52:25;7.30;99.70
9537;DHT22;4807;48.024;11.726;2023-02-19T19:55:35;7.30;99.60
9537;DHT22;4807;48.024;11.726;2023-02-19T19:58:43;7.20;99.90
9537;DHT22;4807;48.024;11.726;2023-02-19T20:01:54;7.20;99.90
9537;DHT22;4807;48.024;11.726;2023-02-19T20:05:04;7.20;99.90
9537;DHT22;4807;48.024;11.726;2023-02-19T20:08:13;7.30;99.70
9537;DHT22;4807;48.024;11.726;2023-02-19T20:11:24;7.30;99.80
9537;DHT22;4807;48.024;11.726;2023-02-19T20:14:32;7.30;99.90
9537;DHT22;4807;48.024;11.726;2023-02-19T20:17:40;7.20;99.90
9537;DHT22;4807;48.024;11.726;2023-02-19T20:20:48;7.20;99.90
9537;DHT22;4807;48.024;11.726;2023-02-19T20:23:56;7.20;99.90
9537;DHT22;4807;48.024;11.726;2023-02-19T20:27:06;7.10;99.90
9537;DHT22;4807;48.024;11.726;2023-02-19T20:30:16;7.20;99.90
9537;DHT22;4807;48.024;11.726;2023-02-19T20:33:25;7.20;99.90
9537;DHT22;4807;48.024;11.726;2023-02-19T20:36:41;7.20;99.90
9537;DHT22;4807;48.024;11.726;2023-02-19T20:39:49;7.20;99.90
9537;DHT22;4807;48.024;11.726;2023-02-19T20:42:59;7.20;99.90
9537;DHT22;4807;48.024;11.726;2023-02-19T20:46:09;7.20;99.90
9537;DHT22;4807;48.024;11.726;2023-02-19T20:49:19;7.20;99.90
9537;DHT22;4807;48.024;11.726;2023-02-19T20:52:28;7.20;99.90
9537;DHT22;4807;48.024;11.726;2023-02-19T20:55:37;7.20;99.90
9537;DHT22;4807;48.024;11.726;2023-02-19T20:58:46;7.20;99.90
9537;DHT22;4807;48.024;11.726;2023-02-19T21:01:55;7.20;99.90
9537;DHT22;4807;48.024;11.726;2023-02-19T21:05:04;7.30;99.90
9537;DHT22;4807;48.024;11.726;2023-02-19T21:08:13;7.30;99.90
9537;DHT22;4807;48.024;11.726;2023-02-19T21:11:23;7.30;99.90
9537;DHT22;4807;48.024;11.726;2023-02-19T21:14:32;7.20;99.90
9537;DHT22;4807;48.024;11.726;2023-02-19T21:17:43;7.20;99.90
9537;DHT22;4807;48.024;11.726;2023-02-19T21:20:53;7.20;99.90
9537;DHT22;4807;48.024;11.726;2023-02-19T21:24:01;7.20;99.90
9537;DHT22;4807;48.024;11.726;2023-02-19T21:27:10;7.20;99.90
9537;DHT22;4807;48.024;11.726;2023-02-19T21:30:19;7.20;99.90
9537;DHT22;4807;48.024;11.726;2023-02-19T21:33:28;7.20;99.90
9537;DHT22;4807;48.024;11.726;2023-02-19T21:36:37;7.30;99.90